Time;durP1;ratioP1;P1;durP2;ratioP2;P2;SDS_P1;SDS_P2;PMS_P1;PMS_P2;Temp;Humidity;BMP_temperature;BMP_pressure;BME280_temperature;BME280_humidity;BME280_pressure;Samples;Min_cycle;Max_cycle;Signal;HPM_P1;HPM_P2
2022/08/28 00:00:11;;;;;;;22.93;6.03;;;;;;;20.24;58.47;100636.06;1665765;84;26228;-61
2022/08/28 00:02:41;;;;;;;19.52;5.85;;;;;;;20.20;58.62;100636.14;1666559;85;25848;-62
2022/08/28 00:05:10;;;;;;;17.37;6.22;;;;;;;20.12;58.79;100635.80;1666266;85;26586;-62
2022/08/28 00:07:37;;;;;;;28.45;6.72;;;;;;;20.10;58.85;100631.06;1665726;86;25829;-62
2022/08/28 00:10:07;;;;;;;26.42;6.55;;;;;;;20.07;59.00;100629.59;1666099;85;27642;-62
2022/08/28 00:12:36;;;;;;;18.57;6.45;;;;;;;20.05;59.09;100628.94;1666059;85;25961;-62
2022/08/28 00:15:11;;;;;;;14.25;6.00;;;;;;;20.01;59.33;100631.23;1666349;85;25797;-63
2022/08/28 00:17:38;;;;;;;27.37;5.83;;;;;;;19.99;60.02;100628.39;1665611;85;25957;-62
2022/08/28 00:20:09;;;;;;;20.55;5.90;;;;;;;19.95;60.37;100628.46;1666251;86;25814;-61
2022/08/28 00:22:37;;;;;;;22.05;5.80;;;;;;;19.90;60.15;100630.43;1665520;85;27485;-61
2022/08/28 00:25:11;;;;;;;18.32;5.33;;;;;;;19.85;60.24;100637.03;1665752;85;25549;-61
2022/08/28 00:27:53;;;;;;;21.55;5.10;;;;;;;19.79;61.03;100638.64;1665799;85;25801;-62
2022/08/28 00:30:25;;;;;;;24.23;5.50;;;;;;;19.71;60.63;100638.80;1666325;86;26738;-63
2022/08/28 00:32:55;;;;;;;18.32;5.55;;;;;;;19.67;60.33;100641.09;1665819;85;25758;-64
2022/08/28 00:35:24;;;;;;;22.52;5.53;;;;;;;19.67;60.18;100645.69;1664739;85;28239;-61
2022/08/28 00:37:51;;;;;;;19.98;5.03;;;;;;;19.67;60.30;100637.50;1661522;86;25898;-62
2022/08/28 00:40:22;;;;;;;25.43;5.15;;;;;;;19.66;60.38;100638.54;1665951;85;25828;-61
2022/08/28 00:42:49;;;;;;;19.87;5.53;;;;;;;19.66;60.15;100639.40;1666208;85;25770;-63
2022/08/28 00:45:19;;;;;;;13.83;5.62;;;;;;;19.67;59.91;100637.50;1666240;85;25444;-62
2022/08/28 00:47:45;;;;;;;20.02;4.45;;;;;;;19.66;59.38;100634.44;1666678;85;27589;-63
2022/08/28 00:50:17;;;;;;;16.23;5.05;;;;;;;19.68;58.83;100635.92;1665716;85;25735;-62
2022/08/28 00:52:49;;;;;;;24.82;4.45;;;;;;;19.75;58.56;100641.44;1618406;88;25828;-62
2022/08/28 00:55:21;;;;;;;24.47;4.80;;;;;;;19.79;57.66;100645.97;1619856;87;25978;-62
2022/08/28 00:57:57;;;;;;;26.62;4.80;;;;;;;19.78;56.68;100650.59;1611421;88;25974;-62
2022/08/28 01:00:34;;;;;;;15.90;5.65;;;;;;;19.80;56.49;100637.60;1628558;83;27520;-61
2022/08/28 01:03:04;;;;;;;27.13;5.70;;;;;;;19.81;55.81;100649.34;1649068;87;25931;-63
2022/08/28 01:05:33;;;;;;;18.95;5.30;;;;;;;19.75;55.68;100652.35;1633780;85;26003;-63
2022/08/28 01:08:00;;;;;;;24.40;4.75;;;;;;;19.70;55.48;100651.59;1645039;87;25973;-62
2022/08/28 01:10:31;;;;;;;21.77;4.37;;;;;;;19.70;55.51;100655.67;1649474;87;25737;-62
2022/08/28 01:13:00;;;;;;;19.87;5.33;;;;;;;19.75;55.80;100659.70;1638946;87;28569;-62
2022/08/28 01:15:31;;;;;;;28.32;6.12;;;;;;;19.80;56.25;100660.80;1649280;87;25854;-62
2022/08/28 01:18:03;;;;;;;24.47;5.20;;;;;;;19.83;57.46;100663.11;1649734;85;25857;-62
2022/08/28 01:20:33;;;;;;;27.27;5.67;;;;;;;19.76;58.33;100656.77;1638760;87;25860;-62
2022/08/28 01:23:20;;;;;;;14.15;4.83;;;;;;;19.68;58.56;100659.66;1648696;85;25990;-62
2022/08/28 01:25:48;;;;;;;18.25;6.03;;;;;;;19.61;58.78;100661.50;1647535;86;27475;-62
2022/08/28 01:28:15;;;;;;;27.75;5.83;;;;;;;19.56;58.63;100658.00;1648302;86;25775;-62
2022/08/28 01:30:47;;;;;;;21.02;5.33;;;;;;;19.55;58.76;100657.67;1649040;86;25845;-62
2022/08/28 01:33:14;;;;;;;15.55;4.75;;;;;;;19.52;59.56;100648.52;1643261;86;25985;-62
2022/08/28 01:35:46;;;;;;;21.10;6.37;;;;;;;19.50;59.31;100654.68;1648961;86;26126;-62
2022/08/28 01:38:15;;;;;;;16.93;4.97;;;;;;;19.48;59.56;100645.34;1645124;86;28445;-62
2022/08/28 01:40:46;;;;;;;20.90;5.03;;;;;;;19.45;59.63;100640.80;1653027;84;26436;-61
2022/08/28 01:43:18;;;;;;;12.28;4.37;;;;;;;19.43;60.29;100638.79;1648922;87;25470;-63
2022/08/28 01:45:51;;;;;;;23.83;5.75;;;;;;;19.39;60.33;100639.70;1648895;86;25926;-63
2022/08/28 01:48:20;;;;;;;;;;;;;;;19.38;60.19;100633.92;1674631;84;25801;-63
2022/08/28 01:50:47;;;;;;;18.67;4.85;;;;;;;19.39;60.06;100634.25;1648762;87;27479;-62
2022/08/28 01:53:18;;;;;;;23.65;4.90;;;;;;;19.41;60.14;100645.81;1648199;85;25636;-62
2022/08/28 01:55:46;;;;;;;30.80;5.83;;;;;;;19.43;60.35;100642.88;1648571;85;25496;-63
2022/08/28 01:58:13;;;;;;;24.15;5.37;;;;;;;19.44;60.30;100644.57;1647998;86;26432;-63
2022/08/28 02:00:41;;;;;;;21.77;5.67;;;;;;;19.41;60.20;100644.98;1648181;86;25980;-63
2022/08/28 02:03:09;;;;;;;23.10;5.60;;;;;;;19.32;60.18;100639.65;1620550;87;27190;-64
2022/08/28 02:05:37;;;;;;;17.62;4.45;;;;;;;19.30;60.31;100643.62;1611891;87;25792;-63
2022/08/28 02:08:06;;;;;;;25.92;5.17;;;;;;;19.30;60.50;100640.39;1632483;87;25782;-63
2022/08/28 02:10:36;;;;;;;22.50;5.28;;;;;;;19.31;60.57;100639.35;1641786;87;26683;-62
2022/08/28 02:13:06;;;;;;;23.75;5.75;;;;;;;19.33;60.48;100645.43;1648228;87;25577;-61
2022/08/28 02:15:35;;;;;;;19.87;5.15;;;;;;;19.30;60.81;100640.39;1648696;86;28448;-61
2022/08/28 02:18:04;;;;;;;17.57;5.00;;;;;;;19.28;60.95;100644.33;1648286;87;25903;-61
2022/08/28 02:20:32;;;;;;;18.32;5.37;;;;;;;19.23;61.56;100646.28;1673345;85;25784;-62
2022/08/28 02:23:00;;;;;;;24.80;6.20;;;;;;;19.15;61.98;100646.42;1675709;85;26601;-61
2022/08/28 02:25:28;;;;;;;16.93;4.50;;;;;;;19.08;62.24;100648.58;1619384;88;25923;-61
2022/08/28 02:27:55;;;;;;;14.03;4.42;;;;;;;19.01;61.51;100642.23;1676385;85;27496;-62
2022/08/28 02:30:23;;;;;;;23.75;4.75;;;;;;;18.98;61.88;100641.24;1676651;85;25772;-62
2022/08/28 02:32:50;;;;;;;12.10;5.33;;;;;;;18.89;62.01;100643.23;1677799;85;25751;-62
2022/08/28 02:35:20;;;;;;;21.52;5.58;;;;;;;18.81;61.66;100639.28;1676217;85;25855;-63
2022/08/28 02:37:48;;;;;;;28.73;5.58;;;;;;;18.74;61.66;100644.66;1611753;88;25962;-62
2022/08/28 02:40:20;;;;;;;12.70;4.37;;;;;;;18.72;61.63;100646.72;1676926;84;27425;-63
2022/08/28 02:42:49;;;;;;;19.57;5.17;;;;;;;18.70;61.77;100648.79;1665492;85;25748;-62
2022/08/28 02:45:17;;;;;;;23.05;4.50;;;;;;;18.71;61.83;100646.39;1677328;85;25815;-62
2022/08/28 02:47:46;;;;;;;19.52;5.45;;;;;;;18.70;61.86;100649.32;1620423;88;26781;-62
2022/08/28 02:50:18;;;;;;;19.87;5.15;;;;;;;18.68;61.86;100656.84;1620924;87;25969;-62
2022/08/28 02:52:45;;;;;;;26.60;5.30;;;;;;;18.67;61.86;100656.50;1638436;87;28488;-62
2022/08/28 02:55:16;;;;;;;21.73;6.00;;;;;;;18.66;61.83;100658.91;1636642;87;25767;-62
2022/08/28 02:57:45;;;;;;;16.32;4.22;;;;;;;18.59;62.90;100659.68;1676832;85;25744;-62
2022/08/28 03:00:18;;;;;;;12.95;5.28;;;;;;;18.56;63.12;100655.14;1676731;85;25720;-63
2022/08/28 03:02:46;;;;;;;23.65;5.37;;;;;;;18.52;63.61;100656.54;1618685;88;25776;-62
2022/08/28 03:05:19;;;;;;;13.68;4.75;;;;;;;18.45;63.51;100659.20;1607715;88;27432;-62
2022/08/28 03:07:47;;;;;;;21.42;5.12;;;;;;;18.38;63.39;100660.48;1649056;85;25600;-62
2022/08/28 03:10:15;;;;;;;23.57;5.00;;;;;;;18.37;63.57;100660.16;1649705;85;25832;-62
2022/08/28 03:12:42;;;;;;;11.30;4.50;;;;;;;18.37;64.29;100662.88;1648549;85;25841;-63
2022/08/28 03:15:11;;;;;;;18.40;4.95;;;;;;;18.36;64.48;100668.52;1677809;84;25810;-62
2022/08/28 03:17:39;;;;;;;17.27;5.83;;;;;;;18.35;64.39;100677.19;1677317;84;28229;-62
2022/08/28 03:20:10;;;;;;;20.45;4.58;;;;;;;18.34;64.59;100676.86;1677267;84;25796;-62
2022/08/28 03:25:24;;;;;;;21.57;4.45;;;;;;;18.26;66.32;100679.19;1677719;84;25919;-62
2022/08/28 03:27:52;;;;;;;21.10;4.90;;;;;;;18.19;66.76;100676.04;1677580;84;25790;-62
2022/08/28 03:30:21;;;;;;;12.20;5.08;;;;;;;18.15;66.05;100675.58;1677273;84;28341;-63
2022/08/28 03:32:48;;;;;;;17.15;5.03;;;;;;;18.17;65.95;100680.32;1677424;85;25864;-61
2022/08/28 03:35:15;;;;;;;18.40;4.62;;;;;;;18.19;65.65;100680.13;1677275;84;25765;-62
2022/08/28 03:37:43;;;;;;;16.67;5.42;;;;;;;18.22;65.75;100688.75;1676699;85;26046;-62
2022/08/28 03:40:13;;;;;;;17.60;5.12;;;;;;;18.26;65.54;100688.72;1681749;84;25789;-62
2022/08/28 03:42:40;;;;;;;14.93;5.22;;;;;;;18.30;65.39;100690.55;1667118;84;27500;-62
2022/08/28 03:45:10;;;;;;;18.15;4.53;;;;;;;18.31;65.49;100685.43;1678114;85;25999;-61
2022/08/28 03:47:40;;;;;;;16.20;5.08;;;;;;;18.32;65.55;100691.70;1706281;84;25522;-61
2022/08/28 03:50:10;;;;;;;12.33;5.03;;;;;;;18.32;66.01;100680.81;1682394;84;25967;-62
2022/08/28 03:52:38;;;;;;;14.28;4.20;;;;;;;18.31;65.81;100684.06;1677579;84;25921;-61
2022/08/28 03:55:09;;;;;;;12.55;4.92;;;;;;;18.30;65.95;100679.66;1677682;85;27463;-62
2022/08/28 03:57:36;;;;;;;29.15;5.72;;;;;;;18.30;65.78;100689.19;1677232;84;25837;-62
2022/08/28 04:00:12;;;;;;;16.93;4.75;;;;;;;18.28;65.83;100692.61;1677246;83;25971;-62
2022/08/28 04:02:41;;;;;;;14.78;5.00;;;;;;;18.31;66.16;100692.23;1645203;86;25854;-63
2022/08/28 04:05:09;;;;;;;18.45;6.05;;;;;;;18.37;66.04;100693.36;1667707;85;25449;-62
2022/08/28 04:07:37;;;;;;;23.25;4.78;;;;;;;18.36;66.30;100693.03;1667605;85;27601;-63
2022/08/28 04:10:06;;;;;;;18.82;4.85;;;;;;;18.37;66.18;100691.47;1667377;85;25829;-64
2022/08/28 04:12:34;;;;;;;14.93;4.85;;;;;;;18.39;66.33;100692.62;1665219;85;25864;-63
2022/08/28 04:15:03;;;;;;;16.93;5.33;;;;;;;18.37;66.37;100692.00;1659866;86;26453;-62
2022/08/28 04:17:30;;;;;;;25.15;5.75;;;;;;;18.37;66.93;100695.55;1667774;85;25812;-62
2022/08/28 04:19:57;;;;;;;13.28;4.80;;;;;;;18.37;67.05;100696.09;1667590;85;27485;-63
2022/08/28 04:22:24;;;;;;;19.48;5.67;;;;;;;18.38;67.78;100697.75;1667363;85;25836;-63
2022/08/28 04:25:31;;;;;;;17.25;5.60;;;;;;;18.36;67.17;100704.75;1665317;84;25852;-63
2022/08/28 04:27:56;;;;;;;18.35;4.67;;;;;;;18.38;66.87;100697.75;1658919;85;25843;-63
2022/08/28 04:30:24;;;;;;;23.30;4.90;;;;;;;18.40;67.01;100703.86;1667390;85;25961;-62
2022/08/28 04:32:51;;;;;;;16.55;4.65;;;;;;;18.44;66.97;100709.27;1657746;85;27502;-65
2022/08/28 04:35:20;;;;;;;19.95;4.62;;;;;;;18.52;66.81;100717.83;1667656;85;25797;-63
2022/08/28 04:37:46;;;;;;;20.62;4.58;;;;;;;18.56;66.78;100719.16;1667275;85;25471;-63
2022/08/28 04:40:14;;;;;;;20.50;4.87;;;;;;;18.60;66.89;100717.75;1667365;85;25791;-62
2022/08/28 04:42:43;;;;;;;26.57;5.65;;;;;;;18.63;67.01;100720.61;1667481;84;25699;-62
2022/08/28 04:45:10;;;;;;;17.92;4.97;;;;;;;18.65;66.71;100719.38;1667805;85;27565;-63
2022/08/28 04:47:37;;;;;;;14.60;5.65;;;;;;;18.68;66.76;100712.19;1667291;85;25793;-63
2022/08/28 04:50:06;;;;;;;11.00;4.97;;;;;;;18.74;66.66;100716.00;1667671;85;25813;-63
2022/08/28 04:52:34;;;;;;;17.12;5.05;;;;;;;18.82;66.62;100724.09;1667627;85;25938;-62
2022/08/28 04:55:01;;;;;;;21.15;5.45;;;;;;;18.90;66.41;100716.30;1667755;85;25501;-62
2022/08/28 04:57:28;;;;;;;20.62;5.33;;;;;;;19.00;66.43;100719.59;1668085;85;27398;-63
2022/08/28 04:59:55;;;;;;;22.58;7.08;;;;;;;19.08;66.29;100718.63;1667372;84;25551;-62
2022/08/28 05:02:23;;;;;;;17.45;5.47;;;;;;;19.15;65.88;100719.54;1672704;84;25740;-62
2022/08/28 05:04:50;;;;;;;27.62;5.53;;;;;;;19.23;65.85;100722.14;1677330;85;26633;-62
2022/08/28 05:07:17;;;;;;;29.32;5.50;;;;;;;19.30;65.62;100718.12;1677330;84;26031;-62
2022/08/28 05:09:44;;;;;;;23.00;6.67;;;;;;;19.38;65.40;100722.08;1677619;85;27422;-61
2022/08/28 05:12:16;;;;;;;22.10;5.22;;;;;;;19.46;65.09;100721.08;1677435;84;25754;-62
2022/08/28 05:14:40;;;;;;;18.15;5.80;;;;;;;19.53;65.00;100723.36;1676850;84;25813;-62
2022/08/28 05:17:08;;;;;;;31.27;6.20;;;;;;;19.61;64.50;100727.81;1678188;84;27902;-61
2022/08/28 05:19:35;;;;;;;24.35;6.53;;;;;;;19.68;63.85;100730.61;1677130;85;25848;-62
2022/08/28 05:22:03;;;;;;;27.80;6.15;;;;;;;19.73;62.93;100725.39;1677454;85;27501;-62
2022/08/28 05:24:30;;;;;;;31.75;7.00;;;;;;;19.81;62.40;100738.05;1677079;84;25487;-63
2022/08/28 05:26:57;;;;;;;23.65;6.42;;;;;;;19.87;62.06;100733.19;1677807;85;25896;-62
2022/08/28 05:29:24;;;;;;;25.30;7.15;;;;;;;19.98;61.91;100740.84;1677176;85;25998;-63
2022/08/28 05:31:51;;;;;;;25.52;6.75;;;;;;;20.04;60.92;100745.20;1675967;85;26065;-62
2022/08/28 05:34:19;;;;;;;33.18;7.15;;;;;;;20.09;60.43;100746.26;1668035;84;28307;-63
2022/08/28 05:36:47;;;;;;;13.43;5.87;;;;;;;20.15;60.23;100750.08;1671948;85;27315;-62
2022/08/28 05:39:17;;;;;;;25.35;6.95;;;;;;;20.21;60.01;100741.61;1677447;84;25780;-62
2022/08/28 05:41:46;;;;;;;26.25;6.40;;;;;;;20.28;59.81;100747.45;1677132;85;26835;-62
2022/08/28 05:44:16;;;;;;;35.98;6.00;;;;;;;20.37;59.69;100743.18;1677579;85;25685;-62
2022/08/28 05:46:48;;;;;;;28.35;6.35;;;;;;;20.44;59.37;100746.25;1689216;84;28318;-63
2022/08/28 05:49:18;;;;;;;30.02;6.28;;;;;;;20.51;59.03;100743.55;1698410;84;25993;-63
2022/08/28 05:51:45;;;;;;;22.07;5.78;;;;;;;20.58;58.61;100738.13;1677623;84;25907;-63
2022/08/28 05:54:13;;;;;;;28.27;6.08;;;;;;;20.63;58.09;100735.11;1677571;85;25819;-64
2022/08/28 05:56:43;;;;;;;26.93;6.15;;;;;;;20.72;57.78;100739.03;1677695;85;26253;-64
2022/08/28 05:59:11;;;;;;;32.50;6.58;;;;;;;20.79;57.70;100747.62;1667776;85;27469;-64
2022/08/28 06:01:43;;;;;;;24.75;6.85;;;;;;;20.87;57.71;100741.11;1677131;85;25802;-63
2022/08/28 06:04:21;;;;;;;25.93;5.17;;;;;;;20.94;56.66;100747.44;1667848;85;25787;-63
2022/08/28 06:06:48;;;;;;;23.98;5.65;;;;;;;21.01;56.28;100745.27;1673361;84;26346;-63
2022/08/28 06:09:22;;;;;;;22.05;5.72;;;;;;;21.07;55.99;100749.36;1677235;85;26224;-63
2022/08/28 06:11:50;;;;;;;30.77;7.85;;;;;;;21.15;55.79;100744.77;1677534;84;27371;-63
2022/08/28 06:14:19;;;;;;;24.25;5.58;;;;;;;21.23;55.94;100738.57;1649527;85;25686;-62
2022/08/28 06:16:51;;;;;;;26.07;7.37;;;;;;;21.34;55.81;100741.20;1649330;86;25846;-63
2022/08/28 06:19:21;;;;;;;26.25;6.30;;;;;;;21.43;55.75;100745.42;1668446;85;26335;-63
2022/08/28 06:21:56;;;;;;;22.20;5.25;;;;;;;21.54;55.08;100743.98;1677448;85;25761;-63
2022/08/28 06:24:25;;;;;;;27.55;7.08;;;;;;;21.65;54.83;100744.45;1686665;83;28256;-63
2022/08/28 06:26:53;;;;;;;17.07;5.95;;;;;;;21.76;54.06;100747.06;1677667;84;26230;-63
2022/08/28 06:29:21;;;;;;;30.05;10.13;;;;;;;21.86;53.62;100749.69;1677392;84;25754;-63
2022/08/28 06:31:57;;;;;;;17.50;5.90;;;;;;;22.00;53.62;100749.69;1677497;85;26550;-64
2022/08/28 06:34:26;;;;;;;20.92;6.37;;;;;;;22.10;53.37;100745.95;1669229;85;25843;-64
2022/08/28 06:36:53;;;;;;;26.17;5.25;;;;;;;22.18;52.75;100751.24;1672906;85;27441;-64
2022/08/28 06:39:22;;;;;;;24.15;6.17;;;;;;;22.26;52.18;100750.15;1677215;84;25869;-63
2022/08/28 06:41:49;;;;;;;23.30;5.45;;;;;;;22.37;51.99;100758.23;1677880;84;25765;-63
2022/08/28 06:44:19;;;;;;;29.95;5.78;;;;;;;22.48;51.07;100754.03;1677805;84;25929;-63
2022/08/28 06:46:50;;;;;;;17.55;4.83;;;;;;;22.57;51.37;100761.47;1677508;84;25816;-64
2022/08/28 06:49:17;;;;;;;26.57;5.85;;;;;;;22.66;50.62;100762.41;1677637;85;27443;-65
2022/08/28 06:51:44;;;;;;;21.82;5.67;;;;;;;22.77;50.01;100760.88;1677591;84;25830;-64
2022/08/28 06:54:11;;;;;;;20.20;4.70;;;;;;;22.87;49.65;100760.94;1676973;85;25512;-64
2022/08/28 06:56:38;;;;;;;17.40;4.75;;;;;;;22.94;48.74;100758.48;1677331;85;25901;-63
2022/08/28 06:59:06;;;;;;;22.90;4.78;;;;;;;23.05;48.60;100766.55;1677840;84;25770;-64
2022/08/28 07:01:36;;;;;;;18.98;5.53;;;;;;;23.16;48.79;100754.56;1677129;85;28460;-64
2022/08/28 07:04:08;;;;;;;26.40;5.03;;;;;;;23.21;47.69;100755.63;1677143;85;25254;-64
2022/08/28 07:06:39;;;;;;;21.97;5.15;;;;;;;23.29;48.02;100753.13;1677244;84;25850;-64
2022/08/28 07:09:10;;;;;;;18.32;4.58;;;;;;;23.37;48.22;100750.66;1677207;85;25896;-64
2022/08/28 07:11:38;;;;;;;25.35;4.95;;;;;;;23.47;48.51;100748.78;1677343;85;25757;-64
2022/08/28 07:14:06;;;;;;;29.42;5.50;;;;;;;23.56;48.62;100746.92;1677148;84;27479;-64
2022/08/28 07:16:37;;;;;;;17.27;5.12;;;;;;;23.64;48.33;100744.96;1677547;84;25792;-64
2022/08/28 07:19:07;;;;;;;26.42;5.12;;;;;;;23.73;48.13;100744.99;1677578;85;25717;-64
2022/08/28 07:21:36;;;;;;;19.02;5.28;;;;;;;23.80;47.73;100741.64;1677638;85;26754;-65
2022/08/28 07:24:04;;;;;;;28.60;5.85;;;;;;;23.89;47.50;100743.04;1677405;84;25836;-64
2022/08/28 07:26:31;;;;;;;27.00;5.58;;;;;;;24.01;47.32;100739.59;1677162;85;27507;-64
2022/08/28 07:28:58;;;;;;;20.82;5.60;;;;;;;24.10;46.67;100740.12;1677562;85;26835;-64
2022/08/28 07:31:27;;;;;;;24.50;5.80;;;;;;;24.19;46.59;100734.12;1677356;84;25738;-64
2022/08/28 07:33:54;;;;;;;27.52;5.87;;;;;;;24.28;46.07;100736.56;1677501;85;26735;-64
2022/08/28 07:36:26;;;;;;;29.92;5.35;;;;;;;24.36;45.59;100738.46;1678100;85;25728;-63
2022/08/28 07:38:56;;;;;;;26.65;4.53;;;;;;;24.48;45.81;100741.83;1677419;84;27606;-64
2022/08/28 07:41:30;;;;;;;17.07;5.00;;;;;;;24.60;45.82;100737.77;1677616;85;25898;-63
2022/08/28 07:46:43;;;;;;;17.62;4.85;;;;;;;24.81;45.28;100740.08;1690526;83;25809;-64
2022/08/28 07:49:11;;;;;;;20.43;4.85;;;;;;;24.95;44.53;100738.50;1684332;84;25773;-63
2022/08/28 07:51:38;;;;;;;27.58;4.67;;;;;;;25.04;44.31;100737.10;1676971;85;27536;-64
2022/08/28 07:54:06;;;;;;;26.42;5.37;;;;;;;25.14;44.11;100739.31;1676926;85;25856;-64
2022/08/28 07:56:33;;;;;;;36.55;6.45;;;;;;;25.26;44.43;100736.59;1676943;85;25850;-65
2022/08/28 07:59:02;;;;;;;22.00;5.20;;;;;;;25.39;43.78;100743.28;1677353;85;25806;-64
2022/08/28 08:01:30;;;;;;;20.88;4.97;;;;;;;25.51;43.62;100741.92;1677464;85;25741;-63
2022/08/28 08:03:58;;;;;;;25.23;5.60;;;;;;;25.62;43.23;100741.11;1677465;84;27500;-63
2022/08/28 08:06:29;;;;;;;21.95;5.28;;;;;;;25.76;43.25;100740.90;1677681;84;25732;-64
2022/08/28 08:08:57;;;;;;;16.52;5.35;;;;;;;25.89;42.78;100737.89;1674292;85;25793;-63
2022/08/28 08:11:25;;;;;;;29.35;5.45;;;;;;;26.01;42.81;100738.44;1669939;85;26768;-64
2022/08/28 08:13:53;;;;;;;32.28;5.72;;;;;;;26.12;42.91;100742.29;1677568;85;25697;-63
2022/08/28 08:16:23;;;;;;;28.95;6.10;;;;;;;26.23;41.78;100735.94;1677884;84;27376;-64
2022/08/28 08:18:52;;;;;;;25.60;5.60;;;;;;;26.33;42.41;100734.78;1677151;84;25760;-64
2022/08/28 08:21:21;;;;;;;28.07;4.90;;;;;;;26.47;42.45;100735.36;1677862;85;25836;-65
2022/08/28 08:23:49;;;;;;;15.20;4.90;;;;;;;26.66;42.29;100735.19;1649980;85;25831;-64
2022/08/28 08:26:20;;;;;;;29.37;5.30;;;;;;;26.82;42.70;100737.72;1649517;86;25754;-64
2022/08/28 08:28:49;;;;;;;22.52;5.50;;;;;;;26.97;41.46;100742.19;1676457;84;27501;-64
2022/08/28 08:31:20;;;;;;;20.32;5.10;;;;;;;27.12;40.62;100737.47;1676848;84;25901;-64
2022/08/28 08:33:51;;;;;;;18.40;4.90;;;;;;;27.24;40.48;100740.19;1676106;85;25841;-64
2022/08/28 08:36:21;;;;;;;22.02;5.42;;;;;;;27.42;40.27;100736.91;1666360;84;25915;-64
2022/08/28 08:38:49;;;;;;;17.05;4.40;;;;;;;27.58;40.03;100734.72;1676656;84;25722;-64
2022/08/28 08:41:24;;;;;;;20.77;5.00;;;;;;;27.74;39.17;100729.42;1674141;85;27671;-65
2022/08/28 08:44:28;;;;;;;11.60;4.50;;;;;;;27.90;39.64;100727.75;1676443;85;25837;-66
2022/08/28 08:47:25;;;;;;;22.55;5.22;;;;;;;28.09;39.71;100725.02;1669143;85;25821;-64
2022/08/28 08:50:03;;;;;;;15.68;4.87;;;;;;;28.32;39.10;100730.58;1667766;84;26615;-64
2022/08/28 08:52:41;;;;;;;24.65;5.30;;;;;;;28.56;38.50;100726.45;1676474;85;25736;-64
2022/08/28 08:55:27;;;;;;;20.65;4.85;;;;;;;28.74;38.75;100723.09;1675155;84;29590;-64
2022/08/28 08:58:26;;;;;;;20.62;4.58;;;;;;;28.96;37.46;100725.83;1667040;84;25858;-63
2022/08/28 09:01:05;;;;;;;24.35;4.62;;;;;;;29.15;37.61;100724.08;1676464;85;25747;-64
2022/08/28 09:04:04;;;;;;;20.68;4.85;;;;;;;29.38;36.75;100713.77;1676118;84;25837;-64
2022/08/28 09:06:48;;;;;;;21.27;5.10;;;;;;;29.65;36.83;100723.42;1676577;85;25773;-66
2022/08/28 09:09:32;;;;;;;24.55;4.80;;;;;;;29.91;35.91;100713.33;1677527;84;27437;-64
2022/08/28 09:12:05;;;;;;;20.97;4.05;;;;;;;30.16;35.26;100709.09;1675753;84;25827;-65
2022/08/28 09:15:04;;;;;;;13.60;3.57;;;;;;;30.41;34.38;100710.30;1677352;85;26531;-64
2022/08/28 09:17:46;;;;;;;20.30;4.97;;;;;;;30.70;33.56;100705.72;1675315;85;25844;-64
2022/08/28 09:20:21;;;;;;;19.70;3.62;;;;;;;31.09;31.84;100714.13;1667344;84;26585;-65
2022/08/28 09:22:49;;;;;;;26.75;3.90;;;;;;;31.32;31.58;100709.44;1676980;85;27463;-65
2022/08/28 09:25:55;;;;;;;20.43;3.95;;;;;;;31.74;31.79;100710.86;1676708;84;25785;-65
2022/08/28 09:28:40;;;;;;;19.48;4.10;;;;;;;32.11;30.50;100714.66;1670164;84;25807;-64
2022/08/28 09:31:16;;;;;;;23.52;4.30;;;;;;;32.37;29.14;100722.94;1680146;84;25847;-64
2022/08/28 09:33:47;;;;;;;97.62;7.05;;;;;;;32.76;28.66;100715.24;1649537;85;25816;-65
2022/08/28 09:36:36;;;;;;;16.55;3.47;;;;;;;33.56;28.86;100706.91;1671569;84;27672;-65
2022/08/28 09:39:32;;;;;;;19.67;3.90;;;;;;;34.27;28.31;100714.80;1676057;84;25805;-65
2022/08/28 09:45:17;;;;;;;13.40;4.03;;;;;;;35.72;26.33;100705.16;1677820;84;26403;-64
2022/08/28 09:47:57;;;;;;;15.60;4.50;;;;;;;36.44;25.06;100708.53;1678997;85;25745;-63
2022/08/28 09:50:42;;;;;;;31.60;3.70;;;;;;;37.08;24.42;100705.67;1677610;85;27549;-64
2022/08/28 09:53:14;;;;;;;13.28;3.35;;;;;;;37.46;24.12;100704.50;1677231;84;25950;-65
2022/08/28 09:55:55;;;;;;;18.90;3.42;;;;;;;37.78;22.72;100709.52;1677358;85;25861;-64
2022/08/28 09:58:27;;;;;;;22.95;4.58;;;;;;;38.27;23.36;100705.95;1677111;84;25848;-64
2022/08/28 10:01:21;;;;;;;14.65;3.37;;;;;;;38.69;21.47;100690.91;1677338;85;25820;-63
2022/08/28 10:03:56;;;;;;;18.17;3.65;;;;;;;38.96;22.39;100699.62;1611757;85;27752;-64
2022/08/28 10:06:34;;;;;;;11.97;2.95;;;;;;;39.56;21.53;100694.27;1674412;84;25852;-64
2022/08/28 10:09:18;;;;;;;19.87;4.92;;;;;;;39.90;19.56;100692.50;1670715;85;25787;-65
2022/08/28 10:12:24;;;;;;;23.87;4.40;;;;;;;40.25;20.80;100690.12;1677856;84;25939;-65
2022/08/28 10:15:08;;;;;;;13.93;3.22;;;;;;;40.86;20.05;100692.27;1674778;84;25785;-64
2022/08/28 10:18:08;;;;;;;16.48;2.95;;;;;;;41.29;20.09;100683.42;1678489;85;27901;-65
2022/08/28 10:21:15;;;;;;;22.75;3.67;;;;;;;41.37;17.93;100683.09;1677214;84;26074;-64
2022/08/28 10:24:06;;;;;;;13.50;2.95;;;;;;;41.26;18.26;100679.88;1680413;84;25792;-64
2022/08/28 10:27:06;;;;;;;14.98;4.17;;;;;;;41.61;17.84;100678.09;1677865;85;26909;-66
2022/08/28 10:29:59;;;;;;;24.40;4.12;;;;;;;41.98;17.62;100680.73;1672902;84;25774;-64
2022/08/28 10:33:03;;;;;;;16.45;3.17;;;;;;;42.37;17.30;100671.31;1671027;84;27505;-64
2022/08/28 10:35:58;;;;;;;14.65;2.90;;;;;;;42.69;16.43;100670.87;1671233;85;25807;-64
2022/08/28 10:38:58;;;;;;;13.98;3.45;;;;;;;42.49;16.50;100671.30;1669903;85;25800;-64
2022/08/28 10:41:39;;;;;;;18.80;3.08;;;;;;;42.68;17.33;100671.21;1669547;84;25819;-64
2022/08/28 10:44:08;;;;;;;19.37;2.85;;;;;;;43.02;16.47;100657.69;1664773;85;26164;-64
2022/08/28 10:46:44;;;;;;;20.25;3.30;;;;;;;43.23;16.40;100662.30;1677625;85;27569;-64
2022/08/28 10:49:31;;;;;;;16.35;3.17;;;;;;;43.45;16.69;100661.70;1693385;83;25955;-65
2022/08/28 10:52:12;;;;;;;16.10;2.85;;;;;;;43.93;16.72;100657.45;1680696;84;25777;-64
2022/08/28 10:54:47;;;;;;;12.97;2.40;;;;;;;44.32;15.95;100655.33;1677748;84;26679;-64
2022/08/28 10:57:34;;;;;;;13.10;2.72;;;;;;;44.61;15.36;100652.31;1677882;85;26312;-65
2022/08/28 11:00:11;;;;;;;9.55;2.77;;;;;;;44.80;15.06;100650.12;1677301;85;27572;-66
2022/08/28 11:02:43;;;;;;;13.25;3.42;;;;;;;45.01;15.29;100645.45;1676949;84;25721;-64
2022/08/28 11:05:10;;;;;;;21.68;3.77;;;;;;;45.07;15.02;100653.07;1677118;85;26499;-65
2022/08/28 11:07:46;;;;;;;10.43;2.90;;;;;;;44.64;14.53;100644.48;1677396;84;26929;-65
2022/08/28 11:10:35;;;;;;;21.35;2.77;;;;;;;44.19;14.91;100641.89;1649575;85;44434;-65
2022/08/28 11:13:05;;;;;;;16.02;2.60;;;;;;;44.52;15.35;100644.05;1677646;84;27350;-64
2022/08/28 11:15:37;;;;;;;10.68;2.85;;;;;;;44.68;14.95;100647.63;1677154;84;25898;-62
2022/08/28 11:18:21;;;;;;;22.93;3.00;;;;;;;44.56;14.73;100637.83;1677669;84;25722;-63
2022/08/28 11:20:59;;;;;;;26.55;3.22;;;;;;;45.05;14.06;100647.78;1669821;84;25739;-64
2022/08/28 11:23:43;;;;;;;10.03;2.67;;;;;;;45.26;14.40;100638.87;1669476;84;25806;-63
2022/08/28 11:26:13;;;;;;;14.40;2.72;;;;;;;45.61;14.38;100638.45;1676199;85;27519;-62
2022/08/28 11:28:46;;;;;;;20.48;4.08;;;;;;;45.96;13.74;100631.69;1649752;85;25755;-62
2022/08/28 11:31:18;;;;;;;15.13;2.87;;;;;;;45.79;14.40;100638.14;1679932;83;25952;-62
2022/08/28 11:33:51;;;;;;;10.90;2.80;;;;;;;45.89;13.83;100630.16;1637820;85;25828;-65
2022/08/28 11:36:27;;;;;;;11.73;2.85;;;;;;;45.91;13.79;100629.19;1644957;87;25727;-64
2022/08/28 11:39:00;;;;;;;24.15;3.08;;;;;;;46.17;13.99;100633.24;1641551;85;28189;-64
2022/08/28 11:41:40;;;;;;;13.75;2.72;;;;;;;46.21;13.09;100634.93;1680557;84;25714;-62
2022/08/28 11:44:40;;;;;;;14.13;2.73;;;;;;;46.52;13.66;100624.41;1666077;84;25544;-62
2022/08/28 11:47:35;;;;;;;12.33;2.33;;;;;;;46.57;13.07;100630.36;1656497;83;25843;-65
2022/08/28 11:50:13;;;;;;;16.12;2.42;;;;;;;46.29;12.96;100633.02;1661464;84;25804;-62